createdAt,value
2019-04-05T00:00:08.825Z,99125.33
2019-04-05T00:02:38.413Z,99127.64
2019-04-05T00:05:08.343Z,99125.75
2019-04-05T00:07:37.846Z,99130.89
2019-04-05T00:10:07.228Z,99120.73
2019-04-05T00:12:36.766Z,99116.48
2019-04-05T00:15:15.030Z,99109.67
2019-04-05T00:17:38.655Z,99116.34
2019-04-05T00:20:09.042Z,99105.31
2019-04-05T00:22:38.710Z,99105.41
2019-04-05T00:25:09.027Z,99110.63
2019-04-05T00:27:38.312Z,99106.38
2019-04-05T00:30:09.056Z,99112.42
2019-04-05T00:32:38.628Z,99105.14
2019-04-05T00:35:08.340Z,99092.98
2019-04-05T00:37:37.982Z,99090.77
2019-04-05T00:40:10.568Z,99092.78
2019-04-05T00:42:40.079Z,99092.48
2019-04-05T00:45:10.128Z,99101.25
2019-04-05T00:47:39.706Z,99108.16
2019-04-05T00:50:10.493Z,99104.18
2019-04-05T00:52:41.772Z,99110.05
2019-04-05T00:55:11.813Z,99115.85
2019-04-05T00:57:41.479Z,99119.81
2019-04-05T01:00:13.489Z,99120.24
2019-04-05T01:02:42.985Z,99125.83
2019-04-05T01:05:12.615Z,99133.67
2019-04-05T01:07:42.214Z,99138.17
2019-04-05T01:10:13.065Z,99146.09
2019-04-05T01:12:42.223Z,99142.33
2019-04-05T01:15:11.835Z,99146.22
2019-04-05T01:17:41.764Z,99139.58
2019-04-05T01:20:12.084Z,99127.13
2019-04-05T01:22:42.851Z,99129.80
2019-04-05T01:25:13.003Z,99129.30
2019-04-05T01:27:42.915Z,99123.25
2019-04-05T01:30:16.595Z,99118.07
2019-04-05T01:32:47.231Z,99118.09
2019-04-05T01:35:16.816Z,99111.23
2019-04-05T01:37:46.569Z,99111.09
2019-04-05T01:40:16.404Z,99112.31
2019-04-05T01:42:46.571Z,99112.28
2019-04-05T01:45:16.163Z,99102.70
2019-04-05T01:47:45.837Z,99104.09
2019-04-05T01:50:16.076Z,99095.36
2019-04-05T01:52:46.472Z,99096.47
2019-04-05T01:55:15.961Z,99084.22
2019-04-05T01:57:45.623Z,99094.05
2019-04-05T02:00:15.585Z,99089.60
2019-04-05T02:02:45.213Z,99092.10
2019-04-05T02:05:14.990Z,99090.55
2019-04-05T02:07:45.330Z,99093.72
2019-04-05T02:10:14.733Z,99090.72
2019-04-05T02:12:44.396Z,99092.87
2019-04-05T02:15:16.971Z,99100.38
2019-04-05T02:17:46.597Z,99087.81
2019-04-05T02:20:16.185Z,99103.64
2019-04-05T02:22:45.556Z,99115.55
2019-04-05T02:25:14.887Z,99109.75
2019-04-05T02:27:44.143Z,99107.80
2019-04-05T02:30:14.101Z,99097.20
2019-04-05T02:32:43.541Z,99097.61
2019-04-05T02:35:13.426Z,99098.49
2019-04-05T02:37:43.138Z,99090.95
2019-04-05T02:40:15.481Z,99089.30
2019-04-05T02:42:47.674Z,99087.67
2019-04-05T02:45:20.971Z,99083.83
2019-04-05T02:47:53.612Z,99087.39
2019-04-05T02:50:27.971Z,99083.92
2019-04-05T02:53:00.582Z,99094.83
2019-04-05T02:55:31.251Z,99096.05
2019-04-05T02:58:03.216Z,99102.53
2019-04-05T03:00:34.612Z,99112.84
2019-04-05T03:03:05.618Z,99117.16
2019-04-05T03:05:36.397Z,99121.03
2019-04-05T03:08:06.634Z,99120.92
2019-04-05T03:10:39.201Z,99133.63
2019-04-05T03:13:09.111Z,99132.81
2019-04-05T03:15:38.900Z,99131.27
2019-04-05T03:18:08.465Z,99130.88
2019-04-05T03:20:38.360Z,99125.37
2019-04-05T03:23:08.279Z,99118.22
2019-04-05T03:25:38.366Z,99114.38
2019-04-05T03:28:08.391Z,99105.72
2019-04-05T03:30:38.117Z,99095.56
2019-04-05T03:33:07.640Z,99097.16
2019-04-05T03:35:37.209Z,99110.38
2019-04-05T03:38:07.498Z,99116.84
2019-04-05T03:40:37.297Z,99114.53
2019-04-05T03:43:07.067Z,99115.67
2019-04-05T03:45:36.761Z,99121.29
2019-04-05T03:48:06.470Z,99136.72
2019-04-05T03:50:35.939Z,99133.01
2019-04-05T03:53:05.172Z,99139.36
2019-04-05T03:55:34.521Z,99152.11
2019-04-05T03:58:04.239Z,99159.20
2019-04-05T04:00:33.855Z,99154.58
2019-04-05T04:03:04.167Z,99163.17
2019-04-05T04:05:33.603Z,99166.83
2019-04-05T04:08:03.209Z,99169.02
2019-04-05T04:10:32.772Z,99174.09
2019-04-05T04:13:02.501Z,99176.30
2019-04-05T04:15:32.002Z,99184.24
2019-04-05T04:18:00.841Z,99184.75
2019-04-05T04:20:36.339Z,99172.59
2019-04-05T04:23:08.046Z,99165.19
2019-04-05T04:25:36.943Z,99158.81
2019-04-05T04:28:07.074Z,99152.00
2019-04-05T04:30:37.093Z,99151.01
2019-04-05T04:33:06.875Z,99151.09
2019-04-05T04:35:36.500Z,99146.33
2019-04-05T04:38:06.870Z,99144.83
2019-04-05T04:40:37.500Z,99136.28
2019-04-05T04:43:07.081Z,99140.72
2019-04-05T04:45:36.819Z,99138.16
2019-04-05T04:48:06.716Z,99139.27
2019-04-05T04:50:36.911Z,99142.36
2019-04-05T04:53:07.360Z,99149.55
2019-04-05T04:55:38.556Z,99143.85
2019-04-05T04:58:08.251Z,99149.70
2019-04-05T05:00:38.048Z,99142.45
2019-04-05T05:03:07.663Z,99139.86
2019-04-05T05:05:37.476Z,99137.13
2019-04-05T05:08:08.364Z,99130.92
2019-04-05T05:10:38.164Z,99135.55
2019-04-05T05:13:08.190Z,99136.66
2019-04-05T05:15:37.901Z,99141.14
2019-04-05T05:18:07.594Z,99137.77
2019-04-05T05:20:37.668Z,99143.86
2019-04-05T05:23:07.383Z,99144.91
2019-04-05T05:25:36.979Z,99146.98
2019-04-05T05:28:06.894Z,99144.45
2019-04-05T05:30:36.566Z,99149.93
2019-04-05T05:33:06.380Z,99150.50
2019-04-05T05:35:36.270Z,99149.84
2019-04-05T05:38:05.613Z,99149.30
2019-04-05T05:40:35.758Z,99147.36
2019-04-05T05:43:05.163Z,99143.25
2019-04-05T05:45:34.821Z,99149.45
2019-04-05T05:48:04.534Z,99148.77
2019-04-05T05:50:33.731Z,99160.28
2019-04-05T05:53:03.437Z,99160.69
2019-04-05T05:55:32.632Z,99160.69
2019-04-05T05:58:01.913Z,99160.02
2019-04-05T06:00:31.433Z,99166.02
2019-04-05T06:03:00.690Z,99170.59
2019-04-05T06:05:30.201Z,99165.73
2019-04-05T06:08:00.955Z,99161.53
2019-04-05T06:10:31.019Z,99164.29
2019-04-05T06:13:00.656Z,99162.84
2019-04-05T06:15:30.169Z,99165.88
2019-04-05T06:18:04.945Z,99160.29
2019-04-05T06:20:31.065Z,99165.44
2019-04-05T06:23:00.603Z,99172.05
2019-04-05T06:25:30.123Z,99173.42
2019-04-05T06:28:00.054Z,99178.13
2019-04-05T06:30:29.616Z,99182.09
2019-04-05T06:32:58.892Z,99183.05
2019-04-05T06:35:28.430Z,99184.59
2019-04-05T06:37:57.922Z,99187.44
2019-04-05T06:40:39.750Z,99181.78
2019-04-05T06:42:58.749Z,99181.61
2019-04-05T06:45:28.364Z,99181.17
2019-04-05T06:47:57.901Z,99184.45
2019-04-05T06:50:27.394Z,99187.12
2019-04-05T06:52:56.986Z,99189.48
2019-04-05T06:55:26.240Z,99185.98
2019-04-05T06:57:56.207Z,99189.45
2019-04-05T07:00:28.295Z,99190.07
2019-04-05T07:02:59.204Z,99191.06
2019-04-05T07:05:28.707Z,99188.10
2019-04-05T07:07:57.983Z,99187.08
2019-04-05T07:10:27.488Z,99187.23
2019-04-05T07:12:57.341Z,99183.38
2019-04-05T07:15:26.932Z,99189.12
2019-04-05T07:17:56.599Z,99189.53
2019-04-05T07:20:27.086Z,99182.91
2019-04-05T07:22:56.384Z,99187.32
2019-04-05T07:25:29.144Z,99180.91
2019-04-05T07:27:57.448Z,99180.97
2019-04-05T07:30:28.831Z,99187.80
2019-04-05T07:32:58.613Z,99187.73
2019-04-05T07:35:33.775Z,99187.64
2019-04-05T07:37:59.046Z,99185.39
2019-04-05T07:40:28.654Z,99194.62
2019-04-05T07:42:58.159Z,99194.04
2019-04-05T07:45:27.746Z,99193.95
2019-04-05T07:47:57.359Z,99193.84
2019-04-05T07:50:26.961Z,99189.68
2019-04-05T07:52:56.571Z,99193.73
2019-04-05T07:55:25.952Z,99192.84
2019-04-05T07:57:55.558Z,99193.46
2019-04-05T08:00:28.163Z,99194.90
2019-04-05T08:02:57.566Z,99189.69
2019-04-05T08:05:26.807Z,99197.36
2019-04-05T08:07:56.549Z,99192.84
2019-04-05T08:10:25.890Z,99185.55
2019-04-05T08:12:55.927Z,99194.69
2019-04-05T08:15:25.544Z,99192.47
2019-04-05T08:17:54.932Z,99186.61
2019-04-05T08:20:25.375Z,99185.28
2019-04-05T08:22:55.122Z,99183.50
2019-04-05T08:25:24.313Z,99184.35
2019-04-05T08:27:53.544Z,99185.13
2019-04-05T08:30:23.105Z,99180.06
2019-04-05T08:32:52.550Z,99181.84
2019-04-05T08:35:21.997Z,99184.15
2019-04-05T08:37:51.596Z,99192.16
2019-04-05T08:40:21.262Z,99188.46
2019-04-05T08:42:50.678Z,99187.77
2019-04-05T08:45:25.217Z,99193.83
2019-04-05T08:47:55.516Z,99187.88
2019-04-05T08:50:27.014Z,99198.05
2019-04-05T08:52:56.707Z,99205.84
2019-04-05T08:55:26.313Z,99203.59
2019-04-05T08:57:55.908Z,99198.05
2019-04-05T09:00:25.714Z,99190.70
2019-04-05T09:02:55.472Z,99201.09
2019-04-05T09:05:25.129Z,99194.27
2019-04-05T09:07:54.570Z,99201.38
2019-04-05T09:10:23.832Z,99196.08
2019-04-05T09:12:53.354Z,99196.89
2019-04-05T09:15:23.010Z,99204.92
2019-04-05T09:17:52.315Z,99199.43
2019-04-05T09:20:21.782Z,99200.84
2019-04-05T09:22:51.052Z,99205.03
2019-04-05T09:25:20.509Z,99211.22
2019-04-05T09:27:50.031Z,99211.02
2019-04-05T09:30:19.641Z,99203.08
2019-04-05T09:32:50.775Z,99206.49
2019-04-05T09:35:20.316Z,99201.69
2019-04-05T09:37:49.791Z,99209.65
2019-04-05T09:40:21.139Z,99208.11
2019-04-05T09:42:50.724Z,99210.85
2019-04-05T09:45:20.787Z,99214.30
2019-04-05T09:47:50.319Z,99214.14
2019-04-05T09:50:19.968Z,99218.08
2019-04-05T09:52:49.463Z,99210.13
2019-04-05T09:55:21.665Z,99209.00
2019-04-05T09:57:50.855Z,99199.83
2019-04-05T10:00:23.022Z,99200.43
2019-04-05T10:02:52.774Z,99198.22
2019-04-05T10:05:22.791Z,99206.99
2019-04-05T10:07:55.175Z,99204.00
2019-04-05T10:10:23.860Z,99208.09
2019-04-05T10:12:53.304Z,99209.45
2019-04-05T10:15:22.960Z,99200.28
2019-04-05T10:17:52.550Z,99199.81
2019-04-05T10:20:21.702Z,99200.75
2019-04-05T10:22:51.237Z,99202.33
2019-04-05T10:25:20.853Z,99202.26
2019-04-05T10:27:50.650Z,99197.33
2019-04-05T10:30:20.806Z,99198.87
2019-04-05T10:32:50.253Z,99196.88
2019-04-05T10:35:19.747Z,99198.27
2019-04-05T10:37:49.093Z,99202.86
2019-04-05T10:40:18.811Z,99195.98
2019-04-05T10:42:48.413Z,99194.08
2019-04-05T10:45:18.198Z,99190.31
2019-04-05T10:47:47.867Z,99190.73
2019-04-05T10:50:17.891Z,99194.30
2019-04-05T10:52:47.434Z,99182.86
2019-04-05T10:55:17.123Z,99177.59
2019-04-05T10:57:46.735Z,99173.80
2019-04-05T11:00:17.054Z,99179.03
2019-04-05T11:02:46.639Z,99174.38
2019-04-05T11:05:17.049Z,99180.45
2019-04-05T11:07:47.449Z,99173.98
2019-04-05T11:10:17.062Z,99173.28
2019-04-05T11:12:46.279Z,99174.05
2019-04-05T11:15:16.148Z,99170.13
2019-04-05T11:17:45.715Z,99170.30
2019-04-05T11:20:23.303Z,99167.02
2019-04-05T11:22:49.997Z,99158.42
2019-04-05T11:25:20.798Z,99158.33
2019-04-05T11:27:50.314Z,99164.30
2019-04-05T11:30:31.899Z,99161.84
2019-04-05T11:33:01.237Z,99159.34
2019-04-05T11:35:30.865Z,99162.10
2019-04-05T11:38:00.467Z,99158.08
2019-04-05T11:40:30.157Z,99160.25
2019-04-05T11:43:02.090Z,99169.52
2019-04-05T11:45:33.819Z,99165.91
2019-04-05T11:48:05.291Z,99161.02
2019-04-05T11:50:35.256Z,99157.94
2019-04-05T11:53:04.989Z,99151.98
2019-04-05T11:55:34.686Z,99153.72
2019-04-05T11:58:04.115Z,99149.38
2019-04-05T12:00:35.542Z,99145.99
2019-04-05T12:03:09.881Z,99145.99
2019-04-05T12:05:39.415Z,99144.92
2019-04-05T12:08:10.617Z,99155.50
2019-04-05T12:10:40.261Z,99145.91
2019-04-05T12:13:09.838Z,99151.95
2019-04-05T12:15:39.658Z,99149.19
2019-04-05T12:18:09.224Z,99145.45
2019-04-05T12:20:49.515Z,99134.55
2019-04-05T12:23:10.015Z,99132.83
2019-04-05T12:25:39.675Z,99136.55
2019-04-05T12:28:10.675Z,99131.97
2019-04-05T12:30:42.175Z,99132.61
2019-04-05T12:33:14.168Z,99128.23
2019-04-05T12:35:42.877Z,99130.94
2019-04-05T12:38:14.111Z,99123.91
2019-04-05T12:40:44.192Z,99135.98
2019-04-05T12:43:14.293Z,99135.27
2019-04-05T12:45:44.757Z,99128.19
2019-04-05T12:48:16.094Z,99133.92
2019-04-05T12:50:46.117Z,99124.17
2019-04-05T12:53:15.766Z,99127.45
2019-04-05T12:55:45.384Z,99120.20
2019-04-05T12:58:15.024Z,99116.78
2019-04-05T13:00:44.694Z,99113.23
2019-04-05T13:03:14.158Z,99113.44
2019-04-05T13:05:43.535Z,99112.02
2019-04-05T13:08:13.014Z,99106.00
2019-04-05T13:10:42.648Z,99106.14
2019-04-05T13:13:13.867Z,99105.41
2019-04-05T13:15:43.359Z,99101.70
2019-04-05T13:18:12.961Z,99103.91
2019-04-05T13:20:41.793Z,99100.66
2019-04-05T13:23:11.274Z,99102.55
2019-04-05T13:25:40.972Z,99108.13
2019-04-05T13:28:13.591Z,99114.27
2019-04-05T13:30:41.598Z,99107.19
2019-04-05T13:33:10.850Z,99109.69
2019-04-05T13:35:40.297Z,99102.63
2019-04-05T13:38:10.109Z,99102.17
2019-04-05T13:40:39.577Z,99103.53
2019-04-05T13:43:09.222Z,99095.61
2019-04-05T13:45:38.608Z,99103.89
2019-04-05T13:48:09.125Z,99091.92
2019-04-05T13:50:41.481Z,99094.34
2019-04-05T13:53:11.424Z,99100.37
2019-04-05T13:55:41.460Z,99093.53
2019-04-05T13:58:11.893Z,99093.51
2019-04-05T14:00:41.407Z,99088.00
2019-04-05T14:03:10.999Z,99084.89
2019-04-05T14:05:40.531Z,99085.28
2019-04-05T14:08:10.888Z,99078.72
2019-04-05T14:10:41.931Z,99082.28
2019-04-05T14:13:11.550Z,99084.29
2019-04-05T14:15:42.434Z,99082.91
2019-04-05T14:18:14.490Z,99076.80
2019-04-05T14:20:43.249Z,99073.61
2019-04-05T14:23:12.516Z,99076.36
2019-04-05T14:25:42.164Z,99078.48
2019-04-05T14:28:11.769Z,99073.28
2019-04-05T14:30:41.020Z,99075.66
2019-04-05T14:33:10.063Z,99071.20
2019-04-05T14:35:39.580Z,99068.17
2019-04-05T14:38:11.660Z,99069.33
2019-04-05T14:40:40.472Z,99069.81
2019-04-05T14:43:10.030Z,99066.52
2019-04-05T14:45:39.533Z,99060.03
2019-04-05T14:48:09.087Z,99059.59
2019-04-05T14:50:38.648Z,99064.90
2019-04-05T14:53:08.325Z,99066.75
2019-04-05T14:55:37.961Z,99065.31
2019-04-05T14:58:10.339Z,99057.52
2019-04-05T15:00:38.699Z,99061.30
2019-04-05T15:03:08.239Z,99062.49
2019-04-05T15:05:37.573Z,99054.95
2019-04-05T15:08:07.219Z,99055.69
2019-04-05T15:10:36.860Z,99057.45
2019-04-05T15:13:06.382Z,99056.11
2019-04-05T15:15:35.853Z,99052.13
2019-04-05T15:18:05.516Z,99056.93
2019-04-05T15:20:35.543Z,99062.89
2019-04-05T15:23:05.198Z,99059.73
2019-04-05T15:25:34.868Z,99061.84
2019-04-05T15:28:04.557Z,99055.84
2019-04-05T15:30:34.136Z,99052.23
2019-04-05T15:33:03.991Z,99058.80
2019-04-05T15:35:33.583Z,99057.14
2019-04-05T15:38:03.109Z,99057.20
2019-04-05T15:40:32.570Z,99060.66
2019-04-05T15:43:01.868Z,99060.66
2019-04-05T15:45:31.414Z,99063.59
2019-04-05T15:48:01.074Z,99054.30
2019-04-05T15:50:30.203Z,99058.32
2019-04-05T15:53:02.281Z,99051.57
2019-04-05T15:55:34.272Z,99058.50
2019-04-05T15:58:03.842Z,99047.50
2019-04-05T16:00:37.062Z,99049.11
2019-04-05T16:03:08.426Z,99056.29
2019-04-05T16:05:38.275Z,99043.76
2019-04-05T16:08:08.219Z,99049.72
2019-04-05T16:10:37.887Z,99052.03
2019-04-05T16:13:08.174Z,99055.15
2019-04-05T16:15:39.668Z,99060.00
2019-04-05T16:18:09.355Z,99063.23
2019-04-05T16:20:38.656Z,99062.52
2019-04-05T16:23:09.761Z,99059.61
2019-04-05T16:25:39.394Z,99055.83
2019-04-05T16:28:09.491Z,99059.38
2019-04-05T16:30:39.832Z,99070.16
2019-04-05T16:33:09.450Z,99061.13
2019-04-05T16:35:38.649Z,99066.75
2019-04-05T16:38:07.958Z,99064.81
2019-04-05T16:40:37.472Z,99062.22
2019-04-05T16:43:07.151Z,99065.88
2019-04-05T16:45:38.769Z,99064.07
2019-04-05T16:48:08.413Z,99065.11
2019-04-05T16:50:38.614Z,99054.80
2019-04-05T16:53:09.991Z,99059.47
2019-04-05T16:55:43.341Z,99068.41
2019-04-05T16:58:13.015Z,99066.83
2019-04-05T17:00:42.199Z,99074.77
2019-04-05T17:03:11.763Z,99073.67
2019-04-05T17:05:41.378Z,99077.31
2019-04-05T17:08:10.877Z,99084.81
2019-04-05T17:10:42.653Z,99079.23
2019-04-05T17:13:12.786Z,99083.72
2019-04-05T17:15:52.296Z,99086.62
2019-04-05T17:18:20.690Z,99079.84
2019-04-05T17:20:50.142Z,99090.52
2019-04-05T17:23:19.711Z,99088.45
2019-04-05T17:25:49.237Z,99083.62
2019-04-05T17:28:18.500Z,99090.39
2019-04-05T17:30:47.698Z,99083.49
2019-04-05T17:33:17.184Z,99088.58
2019-04-05T17:35:46.812Z,99085.60
2019-04-05T17:38:16.035Z,99087.03
2019-04-05T17:40:45.644Z,99087.08
2019-04-05T17:43:15.141Z,99087.13
2019-04-05T17:45:44.699Z,99095.31
2019-04-05T17:48:15.927Z,99095.19
2019-04-05T17:50:46.722Z,99099.23
2019-04-05T17:53:16.323Z,99098.89
2019-04-05T17:55:45.836Z,99095.49
2019-04-05T17:58:17.019Z,99093.97
2019-04-05T18:00:46.809Z,99093.30
2019-04-05T18:03:16.423Z,99096.38
2019-04-05T18:05:46.042Z,99100.05
2019-04-05T18:08:15.718Z,99100.38
2019-04-05T18:10:45.037Z,99107.67
2019-04-05T18:13:14.353Z,99108.59
2019-04-05T18:15:52.328Z,99115.76
2019-04-05T18:18:14.895Z,99116.40
2019-04-05T18:20:44.550Z,99109.31
2019-04-05T18:23:24.427Z,99103.55
2019-04-05T18:25:45.029Z,99111.88
2019-04-05T18:28:14.364Z,99107.95
2019-04-05T18:30:43.627Z,99109.29
2019-04-05T18:33:13.100Z,99111.87
2019-04-05T18:35:42.609Z,99112.99
2019-04-05T18:38:12.625Z,99117.52
2019-04-05T18:40:42.160Z,99120.38
2019-04-05T18:43:11.905Z,99120.38
2019-04-05T18:45:41.359Z,99118.56
2019-04-05T18:48:10.985Z,99119.80
2019-04-05T18:50:40.465Z,99124.20
2019-04-05T18:53:09.954Z,99130.68
2019-04-05T18:55:39.952Z,99143.08
2019-04-05T18:58:09.409Z,99140.16
2019-04-05T19:00:39.054Z,99142.73
2019-04-05T19:03:08.501Z,99143.85
2019-04-05T19:05:37.726Z,99148.48
2019-04-05T19:08:07.271Z,99141.89
2019-04-05T19:10:37.605Z,99141.49
2019-04-05T19:13:09.997Z,99143.23
2019-04-05T19:15:39.681Z,99153.11
2019-04-05T19:18:09.276Z,99155.99
2019-04-05T19:20:40.302Z,99150.55
2019-04-05T19:23:11.424Z,99139.66
2019-04-05T19:25:41.463Z,99136.05
2019-04-05T19:28:15.845Z,99135.94
2019-04-05T19:48:31.349Z,99126.84
2019-04-05T19:50:54.871Z,99124.57
2019-04-05T19:53:25.562Z,99118.40
2019-04-05T19:55:55.250Z,99108.51
2019-04-05T19:58:24.847Z,99110.06
2019-04-05T20:00:54.427Z,99111.02
2019-04-05T20:03:24.089Z,99114.42
2019-04-05T20:05:53.360Z,99117.64
2019-04-05T20:08:22.747Z,99113.81
2019-04-05T20:10:52.307Z,99121.62
2019-04-05T20:13:22.542Z,99113.20
2019-04-05T20:15:51.922Z,99115.58
2019-04-05T20:18:21.479Z,99119.50
2019-04-05T20:20:50.987Z,99120.80
2019-04-05T20:23:20.520Z,99122.96
2019-04-05T20:25:50.241Z,99128.73
2019-04-05T20:28:19.809Z,99121.53
2019-04-05T20:30:49.375Z,99123.05
2019-04-05T20:33:19.780Z,99124.81
2019-04-05T20:35:49.573Z,99128.03
2019-04-05T20:38:19.245Z,99126.58
2019-04-05T20:40:48.756Z,99127.94
2019-04-05T20:43:18.239Z,99132.34
2019-04-05T20:45:47.837Z,99135.53
2019-04-05T20:48:17.679Z,99137.27
2019-04-05T20:50:47.299Z,99137.70
2019-04-05T20:53:16.589Z,99136.98
2019-04-05T20:55:46.140Z,99130.20
2019-04-05T20:58:15.162Z,99128.55
2019-04-05T21:00:44.896Z,99129.68
2019-04-05T21:03:14.521Z,99126.08
2019-04-05T21:05:43.976Z,99130.52
2019-04-05T21:08:13.623Z,99134.72
2019-04-05T21:10:43.083Z,99133.28
2019-04-05T21:13:12.610Z,99134.09
2019-04-05T21:15:42.199Z,99137.47
2019-04-05T21:18:11.570Z,99135.75
2019-04-05T21:20:41.137Z,99141.20
2019-04-05T21:23:12.814Z,99142.31
2019-04-05T21:25:42.038Z,99146.45
2019-04-05T21:28:10.956Z,99143.66
2019-04-05T21:30:40.405Z,99148.80
2019-04-05T21:33:09.802Z,99154.04
2019-04-05T21:35:39.389Z,99151.37
2019-04-05T21:38:09.049Z,99148.69
2019-04-05T21:40:38.688Z,99148.69
2019-04-05T21:43:08.289Z,99147.05
2019-04-05T21:45:37.985Z,99143.23
2019-04-05T21:48:07.530Z,99157.53
2019-04-05T21:50:37.123Z,99160.00
2019-04-05T21:53:06.682Z,99145.22
2019-04-05T21:55:36.372Z,99157.44
2019-04-05T21:58:06.076Z,99155.80
2019-04-05T22:00:37.361Z,99165.34
2019-04-05T22:03:06.930Z,99156.63
2019-04-05T22:05:36.498Z,99152.50
2019-04-05T22:08:06.144Z,99154.16
2019-04-05T22:10:35.734Z,99153.01
2019-04-05T22:13:05.667Z,99154.95
2019-04-05T22:15:35.372Z,99155.45
2019-04-05T22:18:05.101Z,99153.41
2019-04-05T22:20:34.733Z,99152.59
2019-04-05T22:23:04.208Z,99154.95
2019-04-05T22:25:33.929Z,99158.97
2019-04-05T22:28:03.618Z,99159.58
2019-04-05T22:30:33.144Z,99152.16
2019-04-05T22:33:02.834Z,99154.23
2019-04-05T22:35:32.656Z,99151.98
2019-04-05T22:38:02.125Z,99148.67
2019-04-05T22:40:31.935Z,99152.06
2019-04-05T22:43:01.573Z,99147.34
2019-04-05T22:45:31.287Z,99150.84
2019-04-05T22:48:00.772Z,99143.97
2019-04-05T22:50:30.386Z,99145.91
2019-04-05T22:52:59.858Z,99143.88
2019-04-05T22:55:29.373Z,99140.48
2019-04-05T22:57:58.503Z,99129.16
2019-04-05T23:00:27.908Z,99131.22
2019-04-05T23:02:57.357Z,99132.34
2019-04-05T23:05:26.927Z,99137.47
2019-04-05T23:07:56.523Z,99125.55
2019-04-05T23:10:25.829Z,99125.14
2019-04-05T23:12:55.368Z,99129.06
2019-04-05T23:15:25.273Z,99118.45
2019-04-05T23:17:54.937Z,99120.02
2019-04-05T23:20:24.535Z,99123.48
2019-04-05T23:22:53.973Z,99121.02
2019-04-05T23:25:23.312Z,99118.86
2019-04-05T23:27:52.763Z,99121.74
2019-04-05T23:30:23.885Z,99123.50
2019-04-05T23:32:54.268Z,99124.32
2019-04-05T23:35:23.753Z,99124.75
2019-04-05T23:37:53.232Z,99125.45
2019-04-05T23:40:22.747Z,99128.94
2019-04-05T23:42:52.260Z,99126.38
2019-04-05T23:45:21.717Z,99130.09
2019-04-05T23:47:51.219Z,99125.77
2019-04-05T23:50:20.753Z,99123.92
2019-04-05T23:52:50.269Z,99126.17
2019-04-05T23:55:19.457Z,99129.06
2019-04-05T23:57:49.122Z,99124.74
